sensor_id;sensor_type;location;lat;lon;timestamp;P1;durP1;ratioP1;P2;durP2;ratioP2
9420;SDS011;4749;51.398;5.466;2023-04-25T00:00:15;17.70;;;5.67;;
9420;SDS011;4749;51.398;5.466;2023-04-25T00:02:43;14.60;;;5.60;;
9420;SDS011;4749;51.398;5.466;2023-04-25T00:05:10;13.43;;;5.43;;
9420;SDS011;4749;51.398;5.466;2023-04-25T00:07:38;10.97;;;4.83;;
9420;SDS011;4749;51.398;5.466;2023-04-25T00:10:06;14.93;;;4.80;;
9420;SDS011;4749;51.398;5.466;2023-04-25T00:12:34;16.67;;;5.73;;
9420;SDS011;4749;51.398;5.466;2023-04-25T00:15:02;14.03;;;4.90;;
9420;SDS011;4749;51.398;5.466;2023-04-25T00:17:29;14.27;;;4.90;;
9420;SDS011;4749;51.398;5.466;2023-04-25T00:19:57;12.83;;;5.87;;
9420;SDS011;4749;51.398;5.466;2023-04-25T00:22:24;12.53;;;5.23;;
9420;SDS011;4749;51.398;5.466;2023-04-25T00:24:51;14.33;;;5.57;;
9420;SDS011;4749;51.398;5.466;2023-04-25T00:27:19;15.70;;;5.33;;
9420;SDS011;4749;51.398;5.466;2023-04-25T00:29:46;13.13;;;5.33;;
9420;SDS011;4749;51.398;5.466;2023-04-25T00:32:13;16.13;;;5.30;;
9420;SDS011;4749;51.398;5.466;2023-04-25T00:34:40;16.17;;;5.00;;
9420;SDS011;4749;51.398;5.466;2023-04-25T00:37:07;17.37;;;5.40;;
9420;SDS011;4749;51.398;5.466;2023-04-25T00:39:35;14.43;;;5.67;;
9420;SDS011;4749;51.398;5.466;2023-04-25T00:42:02;12.43;;;4.73;;
9420;SDS011;4749;51.398;5.466;2023-04-25T00:44:30;15.93;;;5.30;;
9420;SDS011;4749;51.398;5.466;2023-04-25T00:46:58;15.63;;;5.37;;
9420;SDS011;4749;51.398;5.466;2023-04-25T00:49:28;12.57;;;4.80;;
9420;SDS011;4749;51.398;5.466;2023-04-25T00:51:55;13.37;;;4.70;;
9420;SDS011;4749;51.398;5.466;2023-04-25T00:54:23;14.80;;;4.70;;
9420;SDS011;4749;51.398;5.466;2023-04-25T00:56:50;12.53;;;4.63;;
9420;SDS011;4749;51.398;5.466;2023-04-25T00:59:19;13.17;;;4.83;;
9420;SDS011;4749;51.398;5.466;2023-04-25T01:01:46;10.43;;;4.37;;
9420;SDS011;4749;51.398;5.466;2023-04-25T01:04:13;12.80;;;4.50;;
9420;SDS011;4749;51.398;5.466;2023-04-25T01:06:41;15.30;;;4.90;;
9420;SDS011;4749;51.398;5.466;2023-04-25T01:09:08;9.60;;;4.00;;
9420;SDS011;4749;51.398;5.466;2023-04-25T01:11:36;14.03;;;4.23;;
9420;SDS011;4749;51.398;5.466;2023-04-25T01:14:03;10.50;;;3.90;;
9420;SDS011;4749;51.398;5.466;2023-04-25T01:16:30;11.00;;;3.97;;
9420;SDS011;4749;51.398;5.466;2023-04-25T01:18:59;16.73;;;4.47;;
9420;SDS011;4749;51.398;5.466;2023-04-25T01:21:26;11.57;;;4.50;;
9420;SDS011;4749;51.398;5.466;2023-04-25T01:23:56;17.63;;;4.40;;
9420;SDS011;4749;51.398;5.466;2023-04-25T01:26:23;18.17;;;4.70;;
9420;SDS011;4749;51.398;5.466;2023-04-25T01:28:51;14.87;;;4.13;;
9420;SDS011;4749;51.398;5.466;2023-04-25T01:31:19;10.90;;;3.93;;
9420;SDS011;4749;51.398;5.466;2023-04-25T01:33:47;12.40;;;4.47;;
9420;SDS011;4749;51.398;5.466;2023-04-25T01:36:15;14.50;;;4.20;;
9420;SDS011;4749;51.398;5.466;2023-04-25T01:38:42;14.73;;;4.73;;
9420;SDS011;4749;51.398;5.466;2023-04-25T01:41:10;15.30;;;4.50;;
9420;SDS011;4749;51.398;5.466;2023-04-25T01:43:37;13.50;;;4.80;;
9420;SDS011;4749;51.398;5.466;2023-04-25T01:46:04;12.30;;;4.10;;
9420;SDS011;4749;51.398;5.466;2023-04-25T01:48:32;12.27;;;4.37;;
9420;SDS011;4749;51.398;5.466;2023-04-25T01:50:59;12.07;;;4.20;;
9420;SDS011;4749;51.398;5.466;2023-04-25T01:53:26;9.63;;;4.27;;
9420;SDS011;4749;51.398;5.466;2023-04-25T01:55:53;13.97;;;4.60;;
9420;SDS011;4749;51.398;5.466;2023-04-25T01:58:20;12.40;;;4.27;;
9420;SDS011;4749;51.398;5.466;2023-04-25T02:00:47;13.57;;;4.70;;
9420;SDS011;4749;51.398;5.466;2023-04-25T02:03:14;12.07;;;4.30;;
9420;SDS011;4749;51.398;5.466;2023-04-25T02:05:42;15.83;;;4.07;;
9420;SDS011;4749;51.398;5.466;2023-04-25T02:08:09;11.63;;;4.67;;
9420;SDS011;4749;51.398;5.466;2023-04-25T02:10:36;13.00;;;4.90;;
9420;SDS011;4749;51.398;5.466;2023-04-25T02:13:03;11.83;;;4.77;;
9420;SDS011;4749;51.398;5.466;2023-04-25T02:15:31;15.03;;;4.30;;
9420;SDS011;4749;51.398;5.466;2023-04-25T02:17:58;17.87;;;4.50;;
9420;SDS011;4749;51.398;5.466;2023-04-25T02:20:27;12.87;;;4.90;;
9420;SDS011;4749;51.398;5.466;2023-04-25T02:22:56;15.00;;;5.37;;
9420;SDS011;4749;51.398;5.466;2023-04-25T02:25:23;14.10;;;5.50;;
9420;SDS011;4749;51.398;5.466;2023-04-25T02:27:50;15.77;;;5.13;;
9420;SDS011;4749;51.398;5.466;2023-04-25T02:30:18;12.20;;;4.93;;
9420;SDS011;4749;51.398;5.466;2023-04-25T02:32:45;16.80;;;5.30;;
9420;SDS011;4749;51.398;5.466;2023-04-25T02:35:13;19.13;;;6.37;;
9420;SDS011;4749;51.398;5.466;2023-04-25T02:37:40;17.20;;;5.10;;
9420;SDS011;4749;51.398;5.466;2023-04-25T02:40:08;13.43;;;5.37;;
9420;SDS011;4749;51.398;5.466;2023-04-25T02:42:36;13.23;;;5.03;;
9420;SDS011;4749;51.398;5.466;2023-04-25T02:45:03;18.37;;;4.97;;
9420;SDS011;4749;51.398;5.466;2023-04-25T02:47:31;17.23;;;5.67;;
9420;SDS011;4749;51.398;5.466;2023-04-25T02:49:58;17.00;;;5.30;;
9420;SDS011;4749;51.398;5.466;2023-04-25T02:52:25;16.77;;;6.63;;
9420;SDS011;4749;51.398;5.466;2023-04-25T02:54:52;13.93;;;4.97;;
9420;SDS011;4749;51.398;5.466;2023-04-25T02:57:19;17.10;;;6.27;;
9420;SDS011;4749;51.398;5.466;2023-04-25T02:59:46;16.03;;;5.33;;
9420;SDS011;4749;51.398;5.466;2023-04-25T03:02:13;14.87;;;4.90;;
9420;SDS011;4749;51.398;5.466;2023-04-25T03:04:41;20.13;;;5.67;;
9420;SDS011;4749;51.398;5.466;2023-04-25T03:07:08;14.57;;;5.23;;
9420;SDS011;4749;51.398;5.466;2023-04-25T03:09:36;18.03;;;5.23;;
9420;SDS011;4749;51.398;5.466;2023-04-25T03:12:03;16.10;;;6.60;;
9420;SDS011;4749;51.398;5.466;2023-04-25T03:14:30;12.00;;;4.77;;
9420;SDS011;4749;51.398;5.466;2023-04-25T03:16:57;18.87;;;5.30;;
9420;SDS011;4749;51.398;5.466;2023-04-25T03:19:24;10.17;;;4.70;;
9420;SDS011;4749;51.398;5.466;2023-04-25T03:21:51;13.07;;;4.97;;
9420;SDS011;4749;51.398;5.466;2023-04-25T03:24:19;19.33;;;5.60;;
9420;SDS011;4749;51.398;5.466;2023-04-25T03:26:46;20.97;;;6.57;;
9420;SDS011;4749;51.398;5.466;2023-04-25T03:29:13;18.83;;;5.30;;
9420;SDS011;4749;51.398;5.466;2023-04-25T03:31:40;19.73;;;5.67;;
9420;SDS011;4749;51.398;5.466;2023-04-25T03:34:08;17.10;;;5.97;;
9420;SDS011;4749;51.398;5.466;2023-04-25T03:36:35;14.80;;;5.10;;
9420;SDS011;4749;51.398;5.466;2023-04-25T03:39:02;16.07;;;5.50;;
9420;SDS011;4749;51.398;5.466;2023-04-25T03:41:29;21.17;;;5.60;;
9420;SDS011;4749;51.398;5.466;2023-04-25T03:43:56;13.53;;;4.90;;
9420;SDS011;4749;51.398;5.466;2023-04-25T03:46:23;13.57;;;5.13;;
9420;SDS011;4749;51.398;5.466;2023-04-25T03:48:50;22.23;;;6.20;;
9420;SDS011;4749;51.398;5.466;2023-04-25T03:51:17;12.87;;;5.40;;
9420;SDS011;4749;51.398;5.466;2023-04-25T03:53:44;17.23;;;5.20;;
9420;SDS011;4749;51.398;5.466;2023-04-25T03:56:11;12.83;;;5.40;;
9420;SDS011;4749;51.398;5.466;2023-04-25T03:58:38;18.60;;;5.33;;
9420;SDS011;4749;51.398;5.466;2023-04-25T04:01:05;13.57;;;5.47;;
9420;SDS011;4749;51.398;5.466;2023-04-25T04:03:34;15.27;;;5.57;;
9420;SDS011;4749;51.398;5.466;2023-04-25T04:06:06;19.87;;;6.63;;
9420;SDS011;4749;51.398;5.466;2023-04-25T04:08:35;17.37;;;4.83;;
9420;SDS011;4749;51.398;5.466;2023-04-25T04:11:02;19.17;;;5.67;;
9420;SDS011;4749;51.398;5.466;2023-04-25T04:13:29;11.77;;;5.33;;
9420;SDS011;4749;51.398;5.466;2023-04-25T04:15:56;17.73;;;4.67;;
9420;SDS011;4749;51.398;5.466;2023-04-25T04:18:24;12.80;;;5.03;;
9420;SDS011;4749;51.398;5.466;2023-04-25T04:20:51;15.53;;;4.90;;
9420;SDS011;4749;51.398;5.466;2023-04-25T04:23:19;15.10;;;5.23;;
9420;SDS011;4749;51.398;5.466;2023-04-25T04:25:46;15.43;;;4.50;;
9420;SDS011;4749;51.398;5.466;2023-04-25T04:28:14;15.50;;;4.80;;
9420;SDS011;4749;51.398;5.466;2023-04-25T04:30:42;13.70;;;5.17;;
9420;SDS011;4749;51.398;5.466;2023-04-25T04:33:13;17.03;;;5.27;;
9420;SDS011;4749;51.398;5.466;2023-04-25T04:35:45;10.07;;;4.57;;
9420;SDS011;4749;51.398;5.466;2023-04-25T04:38:13;19.63;;;5.47;;
9420;SDS011;4749;51.398;5.466;2023-04-25T04:40:41;17.03;;;5.33;;
9420;SDS011;4749;51.398;5.466;2023-04-25T04:43:09;18.90;;;5.37;;
9420;SDS011;4749;51.398;5.466;2023-04-25T04:45:36;14.50;;;5.17;;
9420;SDS011;4749;51.398;5.466;2023-04-25T04:48:06;18.77;;;5.40;;
9420;SDS011;4749;51.398;5.466;2023-04-25T04:50:35;17.33;;;5.13;;
9420;SDS011;4749;51.398;5.466;2023-04-25T04:53:02;14.93;;;5.07;;
9420;SDS011;4749;51.398;5.466;2023-04-25T04:55:30;19.77;;;5.20;;
9420;SDS011;4749;51.398;5.466;2023-04-25T04:57:57;16.67;;;5.57;;
9420;SDS011;4749;51.398;5.466;2023-04-25T05:00:24;17.03;;;5.80;;
9420;SDS011;4749;51.398;5.466;2023-04-25T05:02:55;19.10;;;6.70;;
9420;SDS011;4749;51.398;5.466;2023-04-25T05:05:23;18.97;;;5.83;;
9420;SDS011;4749;51.398;5.466;2023-04-25T05:07:50;17.80;;;5.10;;
9420;SDS011;4749;51.398;5.466;2023-04-25T05:10:18;16.50;;;4.77;;
9420;SDS011;4749;51.398;5.466;2023-04-25T05:12:46;12.50;;;5.13;;
9420;SDS011;4749;51.398;5.466;2023-04-25T05:15:13;14.37;;;5.37;;
9420;SDS011;4749;51.398;5.466;2023-04-25T05:17:40;16.23;;;5.00;;
9420;SDS011;4749;51.398;5.466;2023-04-25T05:20:08;24.87;;;5.53;;
9420;SDS011;4749;51.398;5.466;2023-04-25T05:22:36;13.83;;;4.83;;
9420;SDS011;4749;51.398;5.466;2023-04-25T05:25:03;16.20;;;4.93;;
9420;SDS011;4749;51.398;5.466;2023-04-25T05:27:31;15.67;;;4.97;;
9420;SDS011;4749;51.398;5.466;2023-04-25T05:29:58;12.63;;;4.07;;
9420;SDS011;4749;51.398;5.466;2023-04-25T05:32:26;18.00;;;4.63;;
9420;SDS011;4749;51.398;5.466;2023-04-25T05:34:53;15.43;;;4.33;;
9420;SDS011;4749;51.398;5.466;2023-04-25T05:37:20;20.60;;;4.50;;
9420;SDS011;4749;51.398;5.466;2023-04-25T05:39:48;13.40;;;4.17;;
9420;SDS011;4749;51.398;5.466;2023-04-25T05:42:15;12.03;;;4.27;;
9420;SDS011;4749;51.398;5.466;2023-04-25T05:44:42;15.37;;;4.30;;
9420;SDS011;4749;51.398;5.466;2023-04-25T05:47:09;19.17;;;3.80;;
9420;SDS011;4749;51.398;5.466;2023-04-25T05:49:36;15.30;;;4.30;;
9420;SDS011;4749;51.398;5.466;2023-04-25T05:52:03;18.27;;;4.67;;
9420;SDS011;4749;51.398;5.466;2023-04-25T05:54:30;16.23;;;4.40;;
9420;SDS011;4749;51.398;5.466;2023-04-25T05:56:57;8.27;;;4.40;;
9420;SDS011;4749;51.398;5.466;2023-04-25T05:59:25;11.17;;;3.77;;
9420;SDS011;4749;51.398;5.466;2023-04-25T06:01:52;13.17;;;3.90;;
9420;SDS011;4749;51.398;5.466;2023-04-25T06:04:19;22.07;;;4.77;;
9420;SDS011;4749;51.398;5.466;2023-04-25T06:06:46;14.90;;;4.63;;
9420;SDS011;4749;51.398;5.466;2023-04-25T06:09:13;9.33;;;3.77;;
9420;SDS011;4749;51.398;5.466;2023-04-25T06:11:40;12.20;;;3.97;;
9420;SDS011;4749;51.398;5.466;2023-04-25T06:14:07;16.88;;;4.00;;
9420;SDS011;4749;51.398;5.466;2023-04-25T06:16:35;17.33;;;4.73;;
9420;SDS011;4749;51.398;5.466;2023-04-25T06:19:02;11.50;;;3.70;;
9420;SDS011;4749;51.398;5.466;2023-04-25T06:21:29;11.70;;;3.73;;
9420;SDS011;4749;51.398;5.466;2023-04-25T06:23:56;15.05;;;4.63;;
9420;SDS011;4749;51.398;5.466;2023-04-25T06:26:23;13.13;;;4.23;;
9420;SDS011;4749;51.398;5.466;2023-04-25T06:28:50;13.63;;;4.83;;
9420;SDS011;4749;51.398;5.466;2023-04-25T06:31:17;10.95;;;3.78;;
9420;SDS011;4749;51.398;5.466;2023-04-25T06:33:44;15.48;;;5.18;;
9420;SDS011;4749;51.398;5.466;2023-04-25T06:36:11;17.65;;;4.43;;
9420;SDS011;4749;51.398;5.466;2023-04-25T06:38:38;17.95;;;4.30;;
9420;SDS011;4749;51.398;5.466;2023-04-25T06:41:05;15.35;;;4.00;;
9420;SDS011;4749;51.398;5.466;2023-04-25T06:43:32;14.57;;;4.68;;
9420;SDS011;4749;51.398;5.466;2023-04-25T06:45:59;10.52;;;3.75;;
9420;SDS011;4749;51.398;5.466;2023-04-25T06:48:27;10.80;;;3.92;;
9420;SDS011;4749;51.398;5.466;2023-04-25T06:50:54;15.25;;;4.63;;
9420;SDS011;4749;51.398;5.466;2023-04-25T06:53:22;9.95;;;4.65;;
9420;SDS011;4749;51.398;5.466;2023-04-25T06:55:49;11.68;;;3.25;;
9420;SDS011;4749;51.398;5.466;2023-04-25T06:58:17;10.90;;;2.72;;
9420;SDS011;4749;51.398;5.466;2023-04-25T07:00:44;11.05;;;3.30;;
9420;SDS011;4749;51.398;5.466;2023-04-25T07:03:11;12.85;;;2.83;;
9420;SDS011;4749;51.398;5.466;2023-04-25T07:05:38;9.73;;;3.33;;
9420;SDS011;4749;51.398;5.466;2023-04-25T07:08:06;9.50;;;3.08;;
9420;SDS011;4749;51.398;5.466;2023-04-25T07:10:33;8.52;;;3.22;;
9420;SDS011;4749;51.398;5.466;2023-04-25T07:13:00;9.75;;;2.10;;
9420;SDS011;4749;51.398;5.466;2023-04-25T07:15:27;8.00;;;1.77;;
9420;SDS011;4749;51.398;5.466;2023-04-25T07:17:54;9.07;;;2.20;;
9420;SDS011;4749;51.398;5.466;2023-04-25T07:20:21;12.30;;;2.47;;
9420;SDS011;4749;51.398;5.466;2023-04-25T07:22:48;10.15;;;2.42;;
9420;SDS011;4749;51.398;5.466;2023-04-25T07:25:16;6.47;;;1.70;;
9420;SDS011;4749;51.398;5.466;2023-04-25T07:27:43;8.48;;;1.48;;
9420;SDS011;4749;51.398;5.466;2023-04-25T07:30:11;6.70;;;1.45;;
9420;SDS011;4749;51.398;5.466;2023-04-25T07:32:38;6.30;;;1.30;;
9420;SDS011;4749;51.398;5.466;2023-04-25T07:35:06;6.25;;;1.63;;
9420;SDS011;4749;51.398;5.466;2023-04-25T07:37:34;7.00;;;2.15;;
9420;SDS011;4749;51.398;5.466;2023-04-25T07:40:02;4.45;;;1.50;;
9420;SDS011;4749;51.398;5.466;2023-04-25T07:42:30;8.13;;;1.60;;
9420;SDS011;4749;51.398;5.466;2023-04-25T07:44:57;8.70;;;1.52;;
9420;SDS011;4749;51.398;5.466;2023-04-25T07:47:24;5.95;;;1.20;;
9420;SDS011;4749;51.398;5.466;2023-04-25T07:49:51;5.22;;;1.38;;
9420;SDS011;4749;51.398;5.466;2023-04-25T07:52:18;4.20;;;1.10;;
9420;SDS011;4749;51.398;5.466;2023-04-25T07:54:46;4.72;;;1.05;;
9420;SDS011;4749;51.398;5.466;2023-04-25T07:57:14;5.45;;;1.35;;
9420;SDS011;4749;51.398;5.466;2023-04-25T07:59:41;7.22;;;1.80;;
9420;SDS011;4749;51.398;5.466;2023-04-25T08:02:08;5.25;;;1.27;;
9420;SDS011;4749;51.398;5.466;2023-04-25T08:04:35;7.95;;;1.10;;
9420;SDS011;4749;51.398;5.466;2023-04-25T08:07:02;7.38;;;1.40;;
9420;SDS011;4749;51.398;5.466;2023-04-25T08:09:29;5.38;;;1.60;;
9420;SDS011;4749;51.398;5.466;2023-04-25T08:12:00;6.28;;;1.35;;
9420;SDS011;4749;51.398;5.466;2023-04-25T08:14:28;6.75;;;1.20;;
9420;SDS011;4749;51.398;5.466;2023-04-25T08:17:02;6.13;;;1.10;;
9420;SDS011;4749;51.398;5.466;2023-04-25T08:19:30;5.75;;;1.48;;
9420;SDS011;4749;51.398;5.466;2023-04-25T08:21:57;7.63;;;1.38;;
9420;SDS011;4749;51.398;5.466;2023-04-25T08:24:24;5.65;;;1.30;;
9420;SDS011;4749;51.398;5.466;2023-04-25T08:26:51;6.70;;;1.60;;
9420;SDS011;4749;51.398;5.466;2023-04-25T08:29:18;7.05;;;1.38;;
9420;SDS011;4749;51.398;5.466;2023-04-25T08:31:46;10.40;;;1.58;;
9420;SDS011;4749;51.398;5.466;2023-04-25T08:34:14;5.53;;;1.60;;
9420;SDS011;4749;51.398;5.466;2023-04-25T08:36:41;5.60;;;1.30;;
9420;SDS011;4749;51.398;5.466;2023-04-25T08:39:08;4.53;;;1.60;;
9420;SDS011;4749;51.398;5.466;2023-04-25T08:41:36;6.53;;;1.75;;
9420;SDS011;4749;51.398;5.466;2023-04-25T08:44:03;7.13;;;1.58;;
9420;SDS011;4749;51.398;5.466;2023-04-25T08:46:35;4.60;;;1.17;;
9420;SDS011;4749;51.398;5.466;2023-04-25T08:49:08;6.05;;;1.50;;
9420;SDS011;4749;51.398;5.466;2023-04-25T08:51:42;8.60;;;1.80;;
9420;SDS011;4749;51.398;5.466;2023-04-25T08:54:17;4.28;;;1.45;;
9420;SDS011;4749;51.398;5.466;2023-04-25T08:57:01;4.60;;;1.42;;
9420;SDS011;4749;51.398;5.466;2023-04-25T08:59:31;6.85;;;1.73;;
9420;SDS011;4749;51.398;5.466;2023-04-25T09:01:59;7.63;;;1.60;;
9420;SDS011;4749;51.398;5.466;2023-04-25T09:04:27;6.93;;;1.40;;
9420;SDS011;4749;51.398;5.466;2023-04-25T09:06:57;7.70;;;1.63;;
9420;SDS011;4749;51.398;5.466;2023-04-25T09:09:25;7.75;;;1.45;;
9420;SDS011;4749;51.398;5.466;2023-04-25T09:11:52;4.80;;;1.25;;
9420;SDS011;4749;51.398;5.466;2023-04-25T09:14:22;6.10;;;1.50;;
9420;SDS011;4749;51.398;5.466;2023-04-25T09:22:05;7.90;;;1.10;;
9420;SDS011;4749;51.398;5.466;2023-04-25T09:27:10;7.07;;;1.70;;
9420;SDS011;4749;51.398;5.466;2023-04-25T09:29:40;6.32;;;1.60;;
9420;SDS011;4749;51.398;5.466;2023-04-25T09:34:43;6.15;;;1.17;;
9420;SDS011;4749;51.398;5.466;2023-04-25T09:37:18;2.78;;;1.15;;
9420;SDS011;4749;51.398;5.466;2023-04-25T09:39:54;4.63;;;1.10;;
9420;SDS011;4749;51.398;5.466;2023-04-25T09:42:27;4.90;;;1.25;;
9420;SDS011;4749;51.398;5.466;2023-04-25T09:44:58;7.10;;;1.40;;
9420;SDS011;4749;51.398;5.466;2023-04-25T09:47:28;5.55;;;1.27;;
9420;SDS011;4749;51.398;5.466;2023-04-25T09:49:55;4.68;;;1.20;;
9420;SDS011;4749;51.398;5.466;2023-04-25T09:52:23;3.70;;;0.80;;
9420;SDS011;4749;51.398;5.466;2023-04-25T09:54:51;3.25;;;1.13;;
9420;SDS011;4749;51.398;5.466;2023-04-25T09:57:20;3.75;;;1.05;;
9420;SDS011;4749;51.398;5.466;2023-04-25T09:59:49;4.55;;;1.15;;
9420;SDS011;4749;51.398;5.466;2023-04-25T10:02:23;3.40;;;1.10;;
9420;SDS011;4749;51.398;5.466;2023-04-25T10:04:55;5.20;;;1.02;;
9420;SDS011;4749;51.398;5.466;2023-04-25T10:07:26;3.97;;;1.23;;
9420;SDS011;4749;51.398;5.466;2023-04-25T10:10:02;7.53;;;1.35;;
9420;SDS011;4749;51.398;5.466;2023-04-25T10:12:32;4.60;;;1.20;;
9420;SDS011;4749;51.398;5.466;2023-04-25T10:15:00;5.72;;;1.42;;
9420;SDS011;4749;51.398;5.466;2023-04-25T10:17:29;4.38;;;1.23;;
9420;SDS011;4749;51.398;5.466;2023-04-25T10:19:57;3.65;;;1.30;;
9420;SDS011;4749;51.398;5.466;2023-04-25T10:22:32;10.20;;;1.30;;
9420;SDS011;4749;51.398;5.466;2023-04-25T10:25:03;4.38;;;1.00;;
9420;SDS011;4749;51.398;5.466;2023-04-25T10:27:32;5.57;;;1.65;;
9420;SDS011;4749;51.398;5.466;2023-04-25T10:30:07;3.42;;;1.27;;
9420;SDS011;4749;51.398;5.466;2023-04-25T10:32:44;5.03;;;0.90;;
9420;SDS011;4749;51.398;5.466;2023-04-25T10:35:14;3.13;;;0.80;;
9420;SDS011;4749;51.398;5.466;2023-04-25T10:37:56;4.10;;;1.27;;
9420;SDS011;4749;51.398;5.466;2023-04-25T10:40:37;9.02;;;1.30;;
9420;SDS011;4749;51.398;5.466;2023-04-25T10:46:00;4.05;;;1.00;;
9420;SDS011;4749;51.398;5.466;2023-04-25T10:48:28;4.57;;;1.60;;
9420;SDS011;4749;51.398;5.466;2023-04-25T10:51:09;4.18;;;1.20;;
9420;SDS011;4749;51.398;5.466;2023-04-25T10:53:38;3.53;;;1.05;;
9420;SDS011;4749;51.398;5.466;2023-04-25T10:56:16;2.35;;;1.00;;
9420;SDS011;4749;51.398;5.466;2023-04-25T10:59:11;5.18;;;1.23;;
9420;SDS011;4749;51.398;5.466;2023-04-25T11:01:46;5.45;;;0.90;;
9420;SDS011;4749;51.398;5.466;2023-04-25T11:04:25;6.05;;;1.40;;
9420;SDS011;4749;51.398;5.466;2023-04-25T11:09:38;7.00;;;1.40;;
9420;SDS011;4749;51.398;5.466;2023-04-25T11:12:07;3.78;;;1.25;;
9420;SDS011;4749;51.398;5.466;2023-04-25T11:14:37;6.20;;;1.15;;
9420;SDS011;4749;51.398;5.466;2023-04-25T11:17:05;5.32;;;1.42;;
9420;SDS011;4749;51.398;5.466;2023-04-25T11:19:33;5.72;;;1.23;;
9420;SDS011;4749;51.398;5.466;2023-04-25T11:22:00;4.35;;;1.02;;
9420;SDS011;4749;51.398;5.466;2023-04-25T11:24:33;5.25;;;1.00;;
9420;SDS011;4749;51.398;5.466;2023-04-25T11:27:04;4.70;;;1.60;;
9420;SDS011;4749;51.398;5.466;2023-04-25T11:29:33;4.53;;;1.35;;
9420;SDS011;4749;51.398;5.466;2023-04-25T11:32:01;2.85;;;0.95;;
9420;SDS011;4749;51.398;5.466;2023-04-25T11:34:29;4.63;;;1.20;;
9420;SDS011;4749;51.398;5.466;2023-04-25T11:37:02;5.70;;;1.20;;
9420;SDS011;4749;51.398;5.466;2023-04-25T11:39:30;3.65;;;1.15;;
9420;SDS011;4749;51.398;5.466;2023-04-25T11:41:57;6.90;;;1.30;;
9420;SDS011;4749;51.398;5.466;2023-04-25T11:44:26;6.80;;;1.50;;
9420;SDS011;4749;51.398;5.466;2023-04-25T11:46:54;6.53;;;1.83;;
9420;SDS011;4749;51.398;5.466;2023-04-25T11:49:21;5.30;;;1.17;;
9420;SDS011;4749;51.398;5.466;2023-04-25T11:51:50;4.40;;;1.10;;
9420;SDS011;4749;51.398;5.466;2023-04-25T11:54:18;4.68;;;1.30;;
9420;SDS011;4749;51.398;5.466;2023-04-25T11:56:45;5.35;;;1.13;;
9420;SDS011;4749;51.398;5.466;2023-04-25T11:59:13;5.43;;;1.15;;
9420;SDS011;4749;51.398;5.466;2023-04-25T12:01:41;3.97;;;1.05;;
9420;SDS011;4749;51.398;5.466;2023-04-25T12:04:19;5.97;;;1.00;;
9420;SDS011;4749;51.398;5.466;2023-04-25T12:06:50;3.95;;;1.10;;
9420;SDS011;4749;51.398;5.466;2023-04-25T12:09:20;4.82;;;1.05;;
9420;SDS011;4749;51.398;5.466;2023-04-25T12:11:56;2.33;;;1.08;;
9420;SDS011;4749;51.398;5.466;2023-04-25T12:16:55;3.70;;;1.15;;
9420;SDS011;4749;51.398;5.466;2023-04-25T12:19:24;3.80;;;1.00;;
9420;SDS011;4749;51.398;5.466;2023-04-25T12:21:52;4.65;;;1.05;;
9420;SDS011;4749;51.398;5.466;2023-04-25T12:24:25;3.58;;;1.00;;
9420;SDS011;4749;51.398;5.466;2023-04-25T12:27:04;3.47;;;0.85;;
9420;SDS011;4749;51.398;5.466;2023-04-25T12:29:34;4.93;;;1.15;;
9420;SDS011;4749;51.398;5.466;2023-04-25T12:32:15;6.43;;;1.13;;
9420;SDS011;4749;51.398;5.466;2023-04-25T12:34:43;4.20;;;1.15;;
9420;SDS011;4749;51.398;5.466;2023-04-25T12:37:11;4.68;;;1.17;;
9420;SDS011;4749;51.398;5.466;2023-04-25T12:39:39;4.15;;;1.00;;
9420;SDS011;4749;51.398;5.466;2023-04-25T12:42:06;3.90;;;0.85;;
9420;SDS011;4749;51.398;5.466;2023-04-25T12:44:38;2.63;;;0.90;;
9420;SDS011;4749;51.398;5.466;2023-04-25T12:47:06;2.38;;;0.90;;
9420;SDS011;4749;51.398;5.466;2023-04-25T12:49:34;2.78;;;0.90;;
9420;SDS011;4749;51.398;5.466;2023-04-25T12:52:01;4.05;;;1.00;;
9420;SDS011;4749;51.398;5.466;2023-04-25T12:54:28;4.25;;;0.80;;
9420;SDS011;4749;51.398;5.466;2023-04-25T12:56:55;4.15;;;0.90;;
9420;SDS011;4749;51.398;5.466;2023-04-25T12:59:22;4.35;;;1.00;;
9420;SDS011;4749;51.398;5.466;2023-04-25T13:01:49;2.97;;;0.82;;
9420;SDS011;4749;51.398;5.466;2023-04-25T13:04:16;6.30;;;0.80;;
9420;SDS011;4749;51.398;5.466;2023-04-25T13:06:44;2.22;;;0.88;;
9420;SDS011;4749;51.398;5.466;2023-04-25T13:09:11;3.03;;;0.88;;
9420;SDS011;4749;51.398;5.466;2023-04-25T13:11:39;2.88;;;0.82;;
9420;SDS011;4749;51.398;5.466;2023-04-25T13:14:08;3.67;;;1.10;;
9420;SDS011;4749;51.398;5.466;2023-04-25T13:16:35;4.18;;;0.80;;
9420;SDS011;4749;51.398;5.466;2023-04-25T13:19:03;5.60;;;0.90;;
9420;SDS011;4749;51.398;5.466;2023-04-25T13:21:30;2.25;;;0.93;;
9420;SDS011;4749;51.398;5.466;2023-04-25T13:24:00;1.10;;;0.60;;
9420;SDS011;4749;51.398;5.466;2023-04-25T13:26:27;3.30;;;0.85;;
9420;SDS011;4749;51.398;5.466;2023-04-25T13:28:54;5.90;;;0.90;;
9420;SDS011;4749;51.398;5.466;2023-04-25T13:31:21;1.85;;;0.70;;
9420;SDS011;4749;51.398;5.466;2023-04-25T13:33:48;5.55;;;1.13;;
9420;SDS011;4749;51.398;5.466;2023-04-25T13:36:16;3.78;;;0.80;;
9420;SDS011;4749;51.398;5.466;2023-04-25T13:38:43;4.82;;;0.90;;
9420;SDS011;4749;51.398;5.466;2023-04-25T13:41:13;3.78;;;1.00;;
9420;SDS011;4749;51.398;5.466;2023-04-25T13:43:45;1.73;;;0.70;;
9420;SDS011;4749;51.398;5.466;2023-04-25T13:46:14;3.88;;;0.98;;
9420;SDS011;4749;51.398;5.466;2023-04-25T13:49:02;5.13;;;0.80;;
9420;SDS011;4749;51.398;5.466;2023-04-25T13:51:38;2.40;;;0.70;;
9420;SDS011;4749;51.398;5.466;2023-04-25T13:54:06;5.43;;;0.80;;
9420;SDS011;4749;51.398;5.466;2023-04-25T13:56:34;4.22;;;0.80;;
9420;SDS011;4749;51.398;5.466;2023-04-25T13:59:01;2.30;;;1.05;;
9420;SDS011;4749;51.398;5.466;2023-04-25T14:01:28;2.08;;;0.80;;
9420;SDS011;4749;51.398;5.466;2023-04-25T14:03:57;4.72;;;0.90;;
9420;SDS011;4749;51.398;5.466;2023-04-25T14:06:24;2.30;;;0.60;;
9420;SDS011;4749;51.398;5.466;2023-04-25T14:08:52;3.55;;;0.82;;
9420;SDS011;4749;51.398;5.466;2023-04-25T14:11:20;3.25;;;0.70;;
9420;SDS011;4749;51.398;5.466;2023-04-25T14:13:47;4.00;;;0.90;;
9420;SDS011;4749;51.398;5.466;2023-04-25T14:16:16;2.95;;;0.95;;
9420;SDS011;4749;51.398;5.466;2023-04-25T14:18:43;3.22;;;1.02;;
9420;SDS011;4749;51.398;5.466;2023-04-25T14:21:10;4.45;;;1.02;;
9420;SDS011;4749;51.398;5.466;2023-04-25T14:23:37;2.03;;;0.70;;
9420;SDS011;4749;51.398;5.466;2023-04-25T14:26:04;3.67;;;0.90;;
9420;SDS011;4749;51.398;5.466;2023-04-25T14:28:31;3.75;;;1.00;;
9420;SDS011;4749;51.398;5.466;2023-04-25T14:30:58;5.68;;;1.20;;
9420;SDS011;4749;51.398;5.466;2023-04-25T14:33:26;4.22;;;1.02;;
9420;SDS011;4749;51.398;5.466;2023-04-25T14:35:54;2.60;;;0.90;;
9420;SDS011;4749;51.398;5.466;2023-04-25T14:38:21;4.07;;;0.90;;
9420;SDS011;4749;51.398;5.466;2023-04-25T14:40:49;2.05;;;1.05;;
9420;SDS011;4749;51.398;5.466;2023-04-25T14:43:17;5.15;;;1.00;;
9420;SDS011;4749;51.398;5.466;2023-04-25T14:45:44;3.20;;;0.90;;
9420;SDS011;4749;51.398;5.466;2023-04-25T14:48:11;4.60;;;0.90;;
9420;SDS011;4749;51.398;5.466;2023-04-25T14:50:39;5.28;;;1.27;;
9420;SDS011;4749;51.398;5.466;2023-04-25T14:53:06;3.17;;;1.10;;
9420;SDS011;4749;51.398;5.466;2023-04-25T14:55:33;4.15;;;0.90;;
9420;SDS011;4749;51.398;5.466;2023-04-25T14:58:00;5.00;;;1.48;;
9420;SDS011;4749;51.398;5.466;2023-04-25T15:00:27;7.47;;;1.35;;
9420;SDS011;4749;51.398;5.466;2023-04-25T15:02:55;3.28;;;0.93;;
9420;SDS011;4749;51.398;5.466;2023-04-25T15:05:22;6.82;;;1.50;;
9420;SDS011;4749;51.398;5.466;2023-04-25T15:07:49;3.78;;;0.88;;
9420;SDS011;4749;51.398;5.466;2023-04-25T15:10:17;3.20;;;1.17;;
9420;SDS011;4749;51.398;5.466;2023-04-25T15:12:45;2.20;;;0.90;;
9420;SDS011;4749;51.398;5.466;2023-04-25T15:15:13;3.88;;;1.45;;
9420;SDS011;4749;51.398;5.466;2023-04-25T15:17:50;3.17;;;0.80;;
9420;SDS011;4749;51.398;5.466;2023-04-25T15:20:18;4.38;;;1.00;;
9420;SDS011;4749;51.398;5.466;2023-04-25T15:22:45;5.25;;;1.10;;
9420;SDS011;4749;51.398;5.466;2023-04-25T15:25:12;4.97;;;1.35;;
9420;SDS011;4749;51.398;5.466;2023-04-25T15:27:39;2.25;;;1.05;;
9420;SDS011;4749;51.398;5.466;2023-04-25T15:30:13;3.92;;;0.90;;
9420;SDS011;4749;51.398;5.466;2023-04-25T15:32:42;6.30;;;0.98;;
9420;SDS011;4749;51.398;5.466;2023-04-25T15:35:14;3.13;;;1.02;;